sensor_id;sensor_type;location;lat;lon;timestamp;pressure;altitude;pressure_sealevel;temperature;humidity
77281;BME280;66339;47.262;17.144;2023-09-08T00:01:40;100864.06;;;23.04;53.43
77281;BME280;66339;47.262;17.144;2023-09-08T00:04:07;100852.47;;;23.03;53.40
77281;BME280;66339;47.262;17.144;2023-09-08T00:06:35;100855.44;;;23.02;53.22
77281;BME280;66339;47.262;17.144;2023-09-08T00:09:03;100851.66;;;23.03;53.32
77281;BME280;66339;47.262;17.144;2023-09-08T00:11:30;100853.81;;;23.01;53.34
77281;BME280;66339;47.262;17.144;2023-09-08T00:13:58;100847.63;;;23.00;53.31
77281;BME280;66339;47.262;17.144;2023-09-08T00:16:26;100849.53;;;23.00;53.36
77281;BME280;66339;47.262;17.144;2023-09-08T00:18:53;100854.13;;;22.99;53.29
77281;BME280;66339;47.262;17.144;2023-09-08T00:21:27;100849.78;;;22.98;53.30
77281;BME280;66339;47.262;17.144;2023-09-08T00:23:55;100850.91;;;22.97;53.35
77281;BME280;66339;47.262;17.144;2023-09-08T00:26:22;100843.59;;;22.98;53.01
77281;BME280;66339;47.262;17.144;2023-09-08T00:28:53;100838.50;;;22.96;53.19
77281;BME280;66339;47.262;17.144;2023-09-08T00:31:24;100845.00;;;22.95;53.07
77281;BME280;66339;47.262;17.144;2023-09-08T00:33:52;100840.41;;;22.96;53.22
77281;BME280;66339;47.262;17.144;2023-09-08T00:36:22;100836.06;;;22.95;53.08
77281;BME280;66339;47.262;17.144;2023-09-08T00:38:53;100831.78;;;22.94;53.08
77281;BME280;66339;47.262;17.144;2023-09-08T00:41:24;100831.78;;;22.94;53.03
77281;BME280;66339;47.262;17.144;2023-09-08T00:43:51;100829.38;;;22.92;53.09
77281;BME280;66339;47.262;17.144;2023-09-08T00:46:19;100830.97;;;22.93;52.96
77281;BME280;66339;47.262;17.144;2023-09-08T00:48:53;100828.56;;;22.92;53.05
77281;BME280;66339;47.262;17.144;2023-09-08T00:51:21;100826.13;;;22.90;52.98
77281;BME280;66339;47.262;17.144;2023-09-08T00:53:49;100817.78;;;22.92;52.98
77281;BME280;66339;47.262;17.144;2023-09-08T00:56:17;100822.63;;;22.90;53.24
77281;BME280;66339;47.262;17.144;2023-09-08T00:58:46;100819.13;;;22.89;53.14
77281;BME280;66339;47.262;17.144;2023-09-08T01:01:15;100817.53;;;22.88;53.07
77281;BME280;66339;47.262;17.144;2023-09-08T01:03:45;100822.12;;;22.88;52.95
77281;BME280;66339;47.262;17.144;2023-09-08T01:06:16;100812.12;;;22.88;52.89
77281;BME280;66339;47.262;17.144;2023-09-08T01:08:44;100814.59;;;22.85;52.89
77281;BME280;66339;47.262;17.144;2023-09-08T01:11:17;100815.94;;;22.87;52.90
77281;BME280;66339;47.262;17.144;2023-09-08T01:13:46;100812.69;;;22.85;52.88
77281;BME280;66339;47.262;17.144;2023-09-08T01:16:14;100814.59;;;22.85;52.79
77281;BME280;66339;47.262;17.144;2023-09-08T01:18:43;100821.88;;;22.84;52.82
77281;BME280;66339;47.262;17.144;2023-09-08T01:24:33;100812.16;;;22.83;52.87
77281;BME280;66339;47.262;17.144;2023-09-08T01:27:05;100814.88;;;22.83;52.73
77281;BME280;66339;47.262;17.144;2023-09-08T01:29:39;100814.06;;;22.83;52.75
77281;BME280;66339;47.262;17.144;2023-09-08T01:32:11;100809.47;;;22.83;52.65
77281;BME280;66339;47.262;17.144;2023-09-08T01:34:39;100814.34;;;22.81;52.72
77281;BME280;66339;47.262;17.144;2023-09-08T01:37:06;100812.16;;;22.83;52.65
77281;BME280;66339;47.262;17.144;2023-09-08T01:39:34;100806.25;;;22.81;52.64
77281;BME280;66339;47.262;17.144;2023-09-08T01:42:06;100812.47;;;22.82;52.54
77281;BME280;66339;47.262;17.144;2023-09-08T01:44:37;100807.88;;;22.82;52.72
77281;BME280;66339;47.262;17.144;2023-09-08T01:47:11;100807.38;;;22.80;52.57
77281;BME280;66339;47.262;17.144;2023-09-08T01:49:38;100804.66;;;22.80;52.58
77281;BME280;66339;47.262;17.144;2023-09-08T01:52:05;100813.31;;;22.77;52.69
77281;BME280;66339;47.262;17.144;2023-09-08T01:54:33;100807.63;;;22.78;52.59
77281;BME280;66339;47.262;17.144;2023-09-08T01:57:00;100803.63;;;22.76;52.52
77281;BME280;66339;47.262;17.144;2023-09-08T01:59:30;100809.03;;;22.76;52.50
77281;BME280;66339;47.262;17.144;2023-09-08T02:01:57;100804.13;;;22.78;52.64
77281;BME280;66339;47.262;17.144;2023-09-08T02:04:27;100808.22;;;22.75;52.64
77281;BME280;66339;47.262;17.144;2023-09-08T02:06:55;100809.28;;;22.74;52.55
77281;BME280;66339;47.262;17.144;2023-09-08T02:09:33;100811.19;;;22.74;52.57
77281;BME280;66339;47.262;17.144;2023-09-08T02:12:01;100816.59;;;22.74;52.50
77281;BME280;66339;47.262;17.144;2023-09-08T02:14:32;100808.22;;;22.75;52.42
77281;BME280;66339;47.262;17.144;2023-09-08T02:17:00;100808.78;;;22.72;52.53
77281;BME280;66339;47.262;17.144;2023-09-08T02:19:33;100809.59;;;22.73;52.52
77281;BME280;66339;47.262;17.144;2023-09-08T02:22:01;100815.78;;;22.73;52.57
77281;BME280;66339;47.262;17.144;2023-09-08T02:24:32;100805.28;;;22.72;52.49
77281;BME280;66339;47.262;17.144;2023-09-08T02:27:01;100806.37;;;22.71;52.49
77281;BME280;66339;47.262;17.144;2023-09-08T02:29:31;100806.37;;;22.71;52.39
77281;BME280;66339;47.262;17.144;2023-09-08T02:32:07;100803.66;;;22.71;52.34
77281;BME280;66339;47.262;17.144;2023-09-08T02:34:36;100803.16;;;22.69;52.40
77281;BME280;66339;47.262;17.144;2023-09-08T02:37:04;100802.06;;;22.70;52.35
77281;BME280;66339;47.262;17.144;2023-09-08T02:39:32;100799.37;;;22.70;52.46
77281;BME280;66339;47.262;17.144;2023-09-08T02:42:12;100800.16;;;22.70;52.37
77281;BME280;66339;47.262;17.144;2023-09-08T02:44:43;100803.16;;;22.69;52.25
77281;BME280;66339;47.262;17.144;2023-09-08T02:47:11;100798.56;;;22.69;52.37
77281;BME280;66339;47.262;17.144;2023-09-08T02:49:39;100803.16;;;22.69;52.26
77281;BME280;66339;47.262;17.144;2023-09-08T02:52:07;100801.56;;;22.68;52.35
77281;BME280;66339;47.262;17.144;2023-09-08T02:54:35;100804.75;;;22.70;52.26
77281;BME280;66339;47.262;17.144;2023-09-08T02:57:02;100798.88;;;22.68;52.34
77281;BME280;66339;47.262;17.144;2023-09-08T02:59:29;100797.25;;;22.67;52.13
77281;BME280;66339;47.262;17.144;2023-09-08T03:02:01;100803.72;;;22.66;52.14
77281;BME280;66339;47.262;17.144;2023-09-08T03:04:32;100803.44;;;22.67;52.13
77281;BME280;66339;47.262;17.144;2023-09-08T03:06:59;100796.44;;;22.66;52.09
77281;BME280;66339;47.262;17.144;2023-09-08T03:09:26;100801.03;;;22.66;52.00
77281;BME280;66339;47.262;17.144;2023-09-08T03:11:54;100798.34;;;22.66;51.96
77281;BME280;66339;47.262;17.144;2023-09-08T03:14:21;100797.53;;;22.65;52.01
77281;BME280;66339;47.262;17.144;2023-09-08T03:16:52;100800.53;;;22.64;51.92
77281;BME280;66339;47.262;17.144;2023-09-08T03:19:19;100802.69;;;22.62;51.90
77281;BME280;66339;47.262;17.144;2023-09-08T03:21:46;100804.28;;;22.63;51.98
77281;BME280;66339;47.262;17.144;2023-09-08T03:24:16;100805.09;;;22.63;52.07
77281;BME280;66339;47.262;17.144;2023-09-08T03:26:52;100798.41;;;22.61;52.06
77281;BME280;66339;47.262;17.144;2023-09-08T03:29:26;100805.09;;;22.63;52.04
77281;BME280;66339;47.262;17.144;2023-09-08T03:31:58;100799.69;;;22.63;52.00
77281;BME280;66339;47.262;17.144;2023-09-08T03:34:27;100800.00;;;22.62;52.13
77281;BME280;66339;47.262;17.144;2023-09-08T03:36:58;100795.69;;;22.61;51.96
77281;BME280;66339;47.262;17.144;2023-09-08T03:39:28;100808.62;;;22.64;51.94
77281;BME280;66339;47.262;17.144;2023-09-08T03:42:00;100805.09;;;22.63;51.95
77281;BME280;66339;47.262;17.144;2023-09-08T03:44:28;100805.09;;;22.63;52.05
77281;BME280;66339;47.262;17.144;2023-09-08T03:47:01;100811.31;;;22.64;51.93
77281;BME280;66339;47.262;17.144;2023-09-08T03:49:30;100807.53;;;22.65;52.07
77281;BME280;66339;47.262;17.144;2023-09-08T03:51:58;100804.81;;;22.65;51.95
77281;BME280;66339;47.262;17.144;2023-09-08T03:54:26;100807.53;;;22.65;52.10
77281;BME280;66339;47.262;17.144;2023-09-08T03:56:56;100818.31;;;22.65;52.02
77281;BME280;66339;47.262;17.144;2023-09-08T03:59:23;100814.00;;;22.64;52.11
77281;BME280;66339;47.262;17.144;2023-09-08T04:01:50;100812.91;;;22.65;52.21
77281;BME280;66339;47.262;17.144;2023-09-08T04:04:18;100818.31;;;22.65;52.21
77281;BME280;66339;47.262;17.144;2023-09-08T04:06:45;100812.91;;;22.65;52.13
77281;BME280;66339;47.262;17.144;2023-09-08T04:09:12;100812.91;;;22.65;52.11
77281;BME280;66339;47.262;17.144;2023-09-08T04:11:40;100815.59;;;22.65;52.21
77281;BME280;66339;47.262;17.144;2023-09-08T04:14:11;100814.00;;;22.64;51.99
77281;BME280;66339;47.262;17.144;2023-09-08T04:16:42;100819.09;;;22.65;52.06
77281;BME280;66339;47.262;17.144;2023-09-08T04:19:10;100816.41;;;22.65;52.08
77281;BME280;66339;47.262;17.144;2023-09-08T04:21:37;100819.09;;;22.65;52.22
77281;BME280;66339;47.262;17.144;2023-09-08T04:24:05;100815.59;;;22.65;52.24
77281;BME280;66339;47.262;17.144;2023-09-08T04:26:32;100812.91;;;22.65;52.32
77281;BME280;66339;47.262;17.144;2023-09-08T04:28:59;100820.47;;;22.63;52.12
77281;BME280;66339;47.262;17.144;2023-09-08T04:31:27;100815.06;;;22.63;51.98
77281;BME280;66339;47.262;17.144;2023-09-08T04:33:55;100827.50;;;22.64;52.05
77281;BME280;66339;47.262;17.144;2023-09-08T04:36:25;100823.16;;;22.63;52.15
77281;BME280;66339;47.262;17.144;2023-09-08T04:38:52;100824.25;;;22.62;53.07
77281;BME280;66339;47.262;17.144;2023-09-08T04:41:20;100827.75;;;22.62;53.24
77281;BME280;66339;47.262;17.144;2023-09-08T04:43:50;100822.09;;;22.64;53.63
77281;BME280;66339;47.262;17.144;2023-09-08T04:46:18;100828.78;;;22.66;53.59
77281;BME280;66339;47.262;17.144;2023-09-08T04:48:48;100827.69;;;22.67;53.71
77281;BME280;66339;47.262;17.144;2023-09-08T04:51:18;100828.53;;;22.68;53.53
77281;BME280;66339;47.262;17.144;2023-09-08T04:53:48;100833.63;;;22.69;52.42
77281;BME280;66339;47.262;17.144;2023-09-08T04:56:18;100832.28;;;22.67;51.82
77281;BME280;66339;47.262;17.144;2023-09-08T04:58:46;100839.06;;;22.64;52.96
77281;BME280;66339;47.262;17.144;2023-09-08T05:01:14;100842.84;;;22.63;53.04
77281;BME280;66339;47.262;17.144;2023-09-08T05:03:50;100842.56;;;22.65;53.34
77281;BME280;66339;47.262;17.144;2023-09-08T05:06:21;100842.56;;;22.65;53.52
77281;BME280;66339;47.262;17.144;2023-09-08T05:08:49;100840.37;;;22.67;53.81
77281;BME280;66339;47.262;17.144;2023-09-08T05:11:18;100845.50;;;22.68;53.94
77281;BME280;66339;47.262;17.144;2023-09-08T05:13:50;100839.31;;;22.68;53.53
77281;BME280;66339;47.262;17.144;2023-09-08T05:16:30;100849.28;;;22.67;53.46
77281;BME280;66339;47.262;17.144;2023-09-08T05:18:59;100853.31;;;22.70;53.95
77281;BME280;66339;47.262;17.144;2023-09-08T05:21:31;100852.50;;;22.69;54.29
77281;BME280;66339;47.262;17.144;2023-09-08T05:23:59;100857.59;;;22.71;54.46
77281;BME280;66339;47.262;17.144;2023-09-08T05:26:27;100861.63;;;22.73;53.93
77281;BME280;66339;47.262;17.144;2023-09-08T05:28:55;100857.03;;;22.74;54.24
77281;BME280;66339;47.262;17.144;2023-09-08T05:31:24;100859.72;;;22.74;54.14
77281;BME280;66339;47.262;17.144;2023-09-08T05:34:03;100862.16;;;22.75;54.23
77281;BME280;66339;47.262;17.144;2023-09-08T05:36:34;100859.72;;;22.74;54.17
77281;BME280;66339;47.262;17.144;2023-09-08T05:39:02;100857.03;;;22.74;54.21
77281;BME280;66339;47.262;17.144;2023-09-08T05:41:34;100855.94;;;22.75;54.82
77281;BME280;66339;47.262;17.144;2023-09-08T05:44:02;100861.34;;;22.75;54.43
77281;BME280;66339;47.262;17.144;2023-09-08T05:46:29;100861.88;;;22.77;54.47
77281;BME280;66339;47.262;17.144;2023-09-08T05:48:57;100867.56;;;22.75;54.46
77281;BME280;66339;47.262;17.144;2023-09-08T05:51:24;100863.75;;;22.76;54.53
77281;BME280;66339;47.262;17.144;2023-09-08T05:53:51;100867.25;;;22.77;54.64
77281;BME280;66339;47.262;17.144;2023-09-08T05:56:19;100865.38;;;22.77;54.74
77281;BME280;66339;47.262;17.144;2023-09-08T05:58:46;100860.78;;;22.78;54.63
77281;BME280;66339;47.262;17.144;2023-09-08T06:01:18;100868.06;;;22.77;54.70
77281;BME280;66339;47.262;17.144;2023-09-08T06:03:56;100859.16;;;22.77;54.79
77281;BME280;66339;47.262;17.144;2023-09-08T06:06:27;100858.38;;;22.76;54.73
77281;BME280;66339;47.262;17.144;2023-09-08T06:08:55;100861.56;;;22.78;55.17
77281;BME280;66339;47.262;17.144;2023-09-08T06:11:22;100874.78;;;22.80;55.34
77281;BME280;66339;47.262;17.144;2023-09-08T06:13:50;100859.66;;;22.79;55.56
77281;BME280;66339;47.262;17.144;2023-09-08T06:16:17;100866.97;;;22.78;55.85
77281;BME280;66339;47.262;17.144;2023-09-08T06:18:48;100869.41;;;22.80;55.83
77281;BME280;66339;47.262;17.144;2023-09-08T06:21:18;100876.38;;;22.81;55.61
77281;BME280;66339;47.262;17.144;2023-09-08T06:23:47;100875.28;;;22.82;55.99
77281;BME280;66339;47.262;17.144;2023-09-08T06:26:18;100876.91;;;22.83;55.94
77281;BME280;66339;47.262;17.144;2023-09-08T06:28:46;100873.12;;;22.84;55.96
77281;BME280;66339;47.262;17.144;2023-09-08T06:31:17;100872.03;;;22.85;55.43
77281;BME280;66339;47.262;17.144;2023-09-08T06:33:44;100880.66;;;22.87;55.32
77281;BME280;66339;47.262;17.144;2023-09-08T06:36:15;100879.56;;;22.88;55.41
77281;BME280;66339;47.262;17.144;2023-09-08T06:38:45;100877.37;;;22.90;55.79
77281;BME280;66339;47.262;17.144;2023-09-08T06:41:20;100874.44;;;22.87;55.65
77281;BME280;66339;47.262;17.144;2023-09-08T06:43:47;100873.63;;;22.91;55.74
77281;BME280;66339;47.262;17.144;2023-09-08T06:46:14;100868.75;;;22.93;56.19
77281;BME280;66339;47.262;17.144;2023-09-08T06:48:43;100874.13;;;22.93;56.27
77281;BME280;66339;47.262;17.144;2023-09-08T06:51:17;100875.75;;;22.94;56.29
77281;BME280;66339;47.262;17.144;2023-09-08T06:53:56;100876.84;;;22.93;56.42
77281;BME280;66339;47.262;17.144;2023-09-08T06:56:27;100883.31;;;22.92;56.74
77281;BME280;66339;47.262;17.144;2023-09-08T06:58:54;100883.31;;;22.92;56.75
77281;BME280;66339;47.262;17.144;2023-09-08T07:01:27;100867.16;;;22.92;56.51
77281;BME280;66339;47.262;17.144;2023-09-08T07:03:55;100875.22;;;22.92;56.41
77281;BME280;66339;47.262;17.144;2023-09-08T07:06:26;100874.66;;;22.90;56.11
77281;BME280;66339;47.262;17.144;2023-09-08T07:08:57;100870.66;;;22.88;55.99
77281;BME280;66339;47.262;17.144;2023-09-08T07:11:28;100877.13;;;22.87;55.86
77281;BME280;66339;47.262;17.144;2023-09-08T07:13:59;100874.72;;;22.85;55.96
77281;BME280;66339;47.262;17.144;2023-09-08T07:16:32;100876.63;;;22.85;55.90
77281;BME280;66339;47.262;17.144;2023-09-08T07:19:03;100875.53;;;22.86;56.27
77281;BME280;66339;47.262;17.144;2023-09-08T07:21:34;100872.84;;;22.86;55.89
77281;BME280;66339;47.262;17.144;2023-09-08T07:24:01;100870.94;;;22.86;55.96
77281;BME280;66339;47.262;17.144;2023-09-08T07:26:28;100868.25;;;22.86;56.39
77281;BME280;66339;47.262;17.144;2023-09-08T07:28:58;100872.84;;;22.86;56.54
77281;BME280;66339;47.262;17.144;2023-09-08T07:31:25;100870.66;;;22.88;56.42
77281;BME280;66339;47.262;17.144;2023-09-08T07:33:53;100873.06;;;22.89;56.61
77281;BME280;66339;47.262;17.144;2023-09-08T07:36:23;100862.28;;;22.89;56.80
77281;BME280;66339;47.262;17.144;2023-09-08T07:38:50;100864.97;;;22.89;57.19
77281;BME280;66339;47.262;17.144;2023-09-08T07:41:23;100867.69;;;22.89;57.43
77281;BME280;66339;47.262;17.144;2023-09-08T07:43:51;100859.59;;;22.89;57.59
77281;BME280;66339;47.262;17.144;2023-09-08T07:46:19;100850.16;;;22.92;57.04
77281;BME280;66339;47.262;17.144;2023-09-08T07:48:52;100851.22;;;22.91;57.36
77281;BME280;66339;47.262;17.144;2023-09-08T07:51:23;100852.06;;;22.91;57.31
77281;BME280;66339;47.262;17.144;2023-09-08T07:53:52;100852.06;;;22.91;57.48
77281;BME280;66339;47.262;17.144;2023-09-08T07:56:20;100853.34;;;22.94;57.24
77281;BME280;66339;47.262;17.144;2023-09-08T07:58:48;100857.66;;;22.95;57.35
77281;BME280;66339;47.262;17.144;2023-09-08T08:01:23;100848.75;;;22.94;56.45
77281;BME280;66339;47.262;17.144;2023-09-08T08:03:53;100847.16;;;22.93;56.81
77281;BME280;66339;47.262;17.144;2023-09-08T08:06:21;100850.91;;;22.97;56.95
77281;BME280;66339;47.262;17.144;2023-09-08T08:08:48;100846.59;;;22.96;56.74
77281;BME280;66339;47.262;17.144;2023-09-08T08:11:19;100854.69;;;22.96;56.83
77281;BME280;66339;47.262;17.144;2023-09-08T08:13:50;100846.59;;;22.96;56.71
77281;BME280;66339;47.262;17.144;2023-09-08T08:16:17;100853.59;;;22.97;56.85
77281;BME280;66339;47.262;17.144;2023-09-08T08:18:46;100859.78;;;22.98;57.46
77281;BME280;66339;47.262;17.144;2023-09-08T08:21:16;100852.50;;;22.98;57.44
77281;BME280;66339;47.262;17.144;2023-09-08T08:23:44;100858.41;;;23.00;57.51
77281;BME280;66339;47.262;17.144;2023-09-08T08:26:17;100846.53;;;23.01;57.44
77281;BME280;66339;47.262;17.144;2023-09-08T08:28:44;100846.25;;;23.03;57.56
77281;BME280;66339;47.262;17.144;2023-09-08T08:31:17;100851.88;;;23.07;57.03
77281;BME280;66339;47.262;17.144;2023-09-08T08:33:48;100839.78;;;23.04;57.02
77281;BME280;66339;47.262;17.144;2023-09-08T08:36:15;100848.13;;;23.02;57.02
77281;BME280;66339;47.262;17.144;2023-09-08T08:38:46;100843.84;;;23.01;57.24
77281;BME280;66339;47.262;17.144;2023-09-08T08:41:13;100843.84;;;23.01;57.36
77281;BME280;66339;47.262;17.144;2023-09-08T08:43:51;100839.53;;;23.00;57.38
77281;BME280;66339;47.262;17.144;2023-09-08T08:46:23;100836.84;;;23.00;58.06
77281;BME280;66339;47.262;17.144;2023-09-08T08:48:54;100839.25;;;23.02;57.81
77281;BME280;66339;47.262;17.144;2023-09-08T08:51:23;100843.84;;;23.01;57.53
77281;BME280;66339;47.262;17.144;2023-09-08T08:53:53;100842.75;;;23.02;57.84
77281;BME280;66339;47.262;17.144;2023-09-08T08:56:20;100838.97;;;23.03;58.01
77281;BME280;66339;47.262;17.144;2023-09-08T08:58:54;100846.25;;;23.03;57.93
77281;BME280;66339;47.262;17.144;2023-09-08T09:01:29;100841.66;;;23.03;58.06
77281;BME280;66339;47.262;17.144;2023-09-08T09:03:58;100837.88;;;23.05;57.79
77281;BME280;66339;47.262;17.144;2023-09-08T09:06:26;100844.88;;;23.06;57.99
77281;BME280;66339;47.262;17.144;2023-09-08T09:08:57;100850.25;;;23.06;57.78
77281;BME280;66339;47.262;17.144;2023-09-08T09:11:31;100840.28;;;23.06;57.91
77281;BME280;66339;47.262;17.144;2023-09-08T09:14:01;100841.06;;;23.07;57.56
77281;BME280;66339;47.262;17.144;2023-09-08T09:16:39;100836.50;;;23.07;57.60
77281;BME280;66339;47.262;17.144;2023-09-08T09:19:07;100841.91;;;23.07;57.78
77281;BME280;66339;47.262;17.144;2023-09-08T09:21:45;100838.09;;;23.08;57.54
77281;BME280;66339;47.262;17.144;2023-09-08T09:24:49;100838.91;;;23.09;57.87
77281;BME280;66339;47.262;17.144;2023-09-08T09:27:21;100826.50;;;23.08;57.56
77281;BME280;66339;47.262;17.144;2023-09-08T09:29:55;100833.50;;;23.09;57.35
77281;BME280;66339;47.262;17.144;2023-09-08T09:32:25;100829.72;;;23.10;56.89
77281;BME280;66339;47.262;17.144;2023-09-08T09:34:56;100821.34;;;23.11;56.57
77281;BME280;66339;47.262;17.144;2023-09-08T09:37:23;100833.97;;;23.16;56.58
77281;BME280;66339;47.262;17.144;2023-09-08T09:39:55;100830.97;;;23.17;56.31
77281;BME280;66339;47.262;17.144;2023-09-08T09:42:27;100826.38;;;23.18;56.23
77281;BME280;66339;47.262;17.144;2023-09-08T09:44:55;100825.81;;;23.21;56.27
77281;BME280;66339;47.262;17.144;2023-09-08T09:47:22;100821.72;;;23.23;56.21
77281;BME280;66339;47.262;17.144;2023-09-08T09:49:52;100823.34;;;23.24;56.21
77281;BME280;66339;47.262;17.144;2023-09-08T09:52:28;100820.34;;;23.26;56.19
77281;BME280;66339;47.262;17.144;2023-09-08T09:54:59;100819.28;;;23.27;56.27
77281;BME280;66339;47.262;17.144;2023-09-08T09:57:33;100821.97;;;23.27;56.25
77281;BME280;66339;47.262;17.144;2023-09-08T10:00:05;100822.47;;;23.29;56.29
77281;BME280;66339;47.262;17.144;2023-09-08T10:02:36;100817.59;;;23.31;56.31
77281;BME280;66339;47.262;17.144;2023-09-08T10:05:13;100816.50;;;23.32;56.30
77281;BME280;66339;47.262;17.144;2023-09-08T10:07:41;100813.78;;;23.32;56.31
77281;BME280;66339;47.262;17.144;2023-09-08T10:10:10;100813.22;;;23.35;56.28
77281;BME280;66339;47.262;17.144;2023-09-08T10:12:38;100812.12;;;23.36;56.35
77281;BME280;66339;47.262;17.144;2023-09-08T10:15:13;100811.31;;;23.36;56.45
77281;BME280;66339;47.262;17.144;2023-09-08T10:17:44;100804.81;;;23.37;56.44
77281;BME280;66339;47.262;17.144;2023-09-08T10:20:13;100809.91;;;23.38;56.41
77281;BME280;66339;47.262;17.144;2023-09-08T10:22:52;100806.16;;;23.39;56.38
77281;BME280;66339;47.262;17.144;2023-09-08T10:25:27;100802.34;;;23.40;56.40
77281;BME280;66339;47.262;17.144;2023-09-08T10:27:58;100796.94;;;23.40;56.36
77281;BME280;66339;47.262;17.144;2023-09-08T10:30:29;100799.34;;;23.42;56.35
77281;BME280;66339;47.262;17.144;2023-09-08T10:33:09;100793.94;;;23.42;56.40
77281;BME280;66339;47.262;17.144;2023-09-08T10:35:45;100793.16;;;23.41;56.36
77281;BME280;66339;47.262;17.144;2023-09-08T10:38:39;100796.37;;;23.43;56.36
77281;BME280;66339;47.262;17.144;2023-09-08T10:43:58;100787.19;;;23.44;56.35
77281;BME280;66339;47.262;17.144;2023-09-08T10:46:33;100785.56;;;23.43;56.44
77281;BME280;66339;47.262;17.144;2023-09-08T10:49:05;100788.28;;;23.43;56.36
77281;BME280;66339;47.262;17.144;2023-09-08T10:51:33;100791.78;;;23.44;56.33
77281;BME280;66339;47.262;17.144;2023-09-08T10:54:05;100777.97;;;23.45;56.31
77281;BME280;66339;47.262;17.144;2023-09-08T10:56:54;100775.56;;;23.44;56.32
77281;BME280;66339;47.262;17.144;2023-09-08T10:59:31;100776.37;;;23.44;56.36
77281;BME280;66339;47.262;17.144;2023-09-08T11:02:03;100768.28;;;23.44;56.36
77281;BME280;66339;47.262;17.144;2023-09-08T11:04:34;100776.37;;;23.44;56.37
77281;BME280;66339;47.262;17.144;2023-09-08T11:07:08;100772.56;;;23.45;56.36
77281;BME280;66339;47.262;17.144;2023-09-08T11:09:36;100764.47;;;23.45;56.37
77281;BME280;66339;47.262;17.144;2023-09-08T11:12:05;100762.56;;;23.46;56.36
77281;BME280;66339;47.262;17.144;2023-09-08T11:14:33;100763.41;;;23.46;56.36
77281;BME280;66339;47.262;17.144;2023-09-08T11:17:08;100770.41;;;23.47;56.34
77281;BME280;66339;47.262;17.144;2023-09-08T11:19:51;100765.00;;;23.47;56.34
77281;BME280;66339;47.262;17.144;2023-09-08T11:22:21;100763.41;;;23.46;56.37
77281;BME280;66339;47.262;17.144;2023-09-08T11:24:49;100752.59;;;23.46;56.36
77281;BME280;66339;47.262;17.144;2023-09-08T11:27:20;100758.00;;;23.46;56.35
77281;BME280;66339;47.262;17.144;2023-09-08T11:29:51;100759.59;;;23.47;56.33
77281;BME280;66339;47.262;17.144;2023-09-08T11:32:21;100760.41;;;23.48;56.34
77281;BME280;66339;47.262;17.144;2023-09-08T11:34:52;100756.38;;;23.45;56.37
77281;BME280;66339;47.262;17.144;2023-09-08T11:37:20;100754.19;;;23.47;56.32
77281;BME280;66339;47.262;17.144;2023-09-08T11:39:53;100750.41;;;23.48;56.33
77281;BME280;66339;47.262;17.144;2023-09-08T11:42:20;100744.22;;;23.48;56.32
77281;BME280;66339;47.262;17.144;2023-09-08T11:44:48;100743.41;;;23.47;56.33
77281;BME280;66339;47.262;17.144;2023-09-08T11:47:19;100747.69;;;23.48;56.31
77281;BME280;66339;47.262;17.144;2023-09-08T11:49:52;100741.81;;;23.46;56.30
77281;BME280;66339;47.262;17.144;2023-09-08T11:52:23;100745.00;;;23.48;56.32
77281;BME280;66339;47.262;17.144;2023-09-08T11:54:54;100730.69;;;23.48;56.29
77281;BME280;66339;47.262;17.144;2023-09-08T11:57:40;100731.50;;;23.48;56.32
77281;BME280;66339;47.262;17.144;2023-09-08T12:00:15;100724.19;;;23.49;56.30
77281;BME280;66339;47.262;17.144;2023-09-08T12:02:50;100735.00;;;23.49;56.32
77281;BME280;66339;47.262;17.144;2023-09-08T12:05:25;100728.81;;;23.48;56.33
77281;BME280;66339;47.262;17.144;2023-09-08T12:07:57;100728.81;;;23.48;56.31
77281;BME280;66339;47.262;17.144;2023-09-08T12:10:25;100722.31;;;23.49;56.27
77281;BME280;66339;47.262;17.144;2023-09-08T12:12:56;100727.69;;;23.49;56.29
77281;BME280;66339;47.262;17.144;2023-09-08T12:15:34;100723.94;;;23.50;56.26
77281;BME280;66339;47.262;17.144;2023-09-08T12:18:06;100719.59;;;23.49;56.27
77281;BME280;66339;47.262;17.144;2023-09-08T12:20:42;100718.53;;;23.50;56.26
77281;BME280;66339;47.262;17.144;2023-09-08T12:23:20;100717.44;;;23.51;56.25
77281;BME280;66339;47.262;17.144;2023-09-08T12:25:50;100722.03;;;23.51;56.29
77281;BME280;66339;47.262;17.144;2023-09-08T12:28:20;100715.53;;;23.52;56.28
77281;BME280;66339;47.262;17.144;2023-09-08T12:30:54;100718.22;;;23.52;56.29
77281;BME280;66339;47.262;17.144;2023-09-08T12:33:22;100717.44;;;23.51;56.29
77281;BME280;66339;47.262;17.144;2023-09-08T12:35:53;100710.44;;;23.50;56.30
77281;BME280;66339;47.262;17.144;2023-09-08T12:38:30;100717.44;;;23.51;56.28
77281;BME280;66339;47.262;17.144;2023-09-08T12:41:01;100704.72;;;23.52;56.27
77281;BME280;66339;47.262;17.144;2023-09-08T12:43:35;100708.22;;;23.52;56.23
77281;BME280;66339;47.262;17.144;2023-09-08T12:46:05;100700.12;;;23.52;56.28
77281;BME280;66339;47.262;17.144;2023-09-08T12:48:36;100702.03;;;23.52;56.28
77281;BME280;66339;47.262;17.144;2023-09-08T12:51:10;100698.53;;;23.51;56.29
77281;BME280;66339;47.262;17.144;2023-09-08T12:53:36;100701.22;;;23.51;56.30
77281;BME280;66339;47.262;17.144;2023-09-08T12:56:05;100695.25;;;23.55;56.26
77281;BME280;66339;47.262;17.144;2023-09-08T12:58:36;100700.91;;;23.53;56.29
77281;BME280;66339;47.262;17.144;2023-09-08T13:01:04;100692.81;;;23.53;56.34
77281;BME280;66339;47.262;17.144;2023-09-08T13:03:34;100697.44;;;23.52;56.38